Terminal Aerodrome Forecast
Issued by NWS

Home | Current Version | Previous Version | Text Only | Print | Product List | Glossary On
Versions: 1 2 3 4 5 6 7 8 9 10 11 12 13
659
FTUS42 KGSP 010540
TAFAND
TAF
KAND 010540Z 0106/0206 VRB03KT P6SM FEW060 SCT250 PROB30 0119/0121
      4SM -TSRA BKN050CB
     FM012100 22006KT P6SM BKN050 PROB30 0121/0124 4SM -TSRA
      OVC025CB
     FM020000 09003KT P6SM -SHRA VCTS BKN040CB PROB30 0200/0206 4SM
      TSRA OVC025CB=

USA.gov is the U.S. government's official web portal to all federal, state and local government web resources and services.